Time;durP1;ratioP1;P1;durP2;ratioP2;P2;SDS_P1;SDS_P2;PMS_P1;PMS_P2;Temp;Humidity;BMP_temperature;BMP_pressure;BME280_temperature;BME280_humidity;BME280_pressure;Samples;Min_cycle;Max_cycle;Signal;HPM_P1;HPM_P2
2022/12/06 00:00:45;;;;;;;;;12.25;11.25;;;;;21.33;39.57;102018.38;5015460;28;45341;-72
2022/12/06 00:03:10;;;;;;;;;18.25;15.25;;;;;21.35;39.72;102026.16;5015738;28;45299;-72
2022/12/06 00:05:37;;;;;;;;;14.50;12.75;;;;;21.33;39.54;102014.91;4998037;28;45412;-72
2022/12/06 00:08:03;;;;;;;;;15.00;12.50;;;;;21.34;39.76;102016.59;5015443;28;46097;-72
2022/12/06 00:10:28;;;;;;;;;16.50;15.25;;;;;21.24;39.55;102006.84;5015534;28;45430;-72
2022/12/06 00:12:53;;;;;;;;;14.50;11.00;;;;;21.33;39.59;102009.59;5015273;28;45320;-72
2022/12/06 00:15:19;;;;;;;;;12.25;9.75;;;;;20.76;39.53;101921.41;5015512;28;45592;-72
2022/12/06 00:17:44;;;;;;;;;12.00;10.50;;;;;21.32;39.67;102013.22;5015518;28;45447;-72
2022/12/06 00:20:10;;;;;;;;;15.75;11.50;;;;;21.29;39.16;102006.41;5015126;28;45413;-72
2022/12/06 00:22:36;;;;;;;;;14.50;10.75;;;;;21.29;39.54;102004.59;5015525;28;45454;-73
2022/12/06 00:25:01;;;;;;;;;10.75;10.75;;;;;21.22;39.60;101990.28;5018960;28;45434;-72
2022/12/06 00:27:26;;;;;;;;;12.25;11.75;;;;;21.25;39.12;101986.53;5018631;28;45451;-72
2022/12/06 00:29:52;;;;;;;;;11.50;11.25;;;;;21.26;39.31;101988.19;5018968;28;45423;-72
2022/12/06 00:32:17;;;;;;;;;11.50;10.25;;;;;21.26;39.50;101985.56;5018946;28;45324;-72
2022/12/06 00:34:43;;;;;;;;;11.75;11.00;;;;;21.25;39.63;101992.66;5019023;28;45384;-72
2022/12/06 00:37:08;;;;;;;;;10.75;8.00;;;;;21.24;39.15;101987.50;5018632;28;47254;-72
2022/12/06 00:39:34;;;;;;;;;15.00;12.75;;;;;21.25;39.38;101989.16;5018659;28;45573;-73
2022/12/06 00:41:59;;;;;;;;;11.00;11.00;;;;;21.15;39.09;101971.53;5018838;28;45455;-72
2022/12/06 00:44:24;;;;;;;;;15.00;11.00;;;;;21.20;39.54;101989.63;5018860;28;45430;-72
2022/12/06 00:46:50;;;;;;;;;11.50;10.75;;;;;21.22;39.55;101990.28;5018556;28;46243;-72
2022/12/06 00:49:15;;;;;;;;;13.75;13.25;;;;;21.20;39.15;101986.97;5018598;28;45304;-72
2022/12/06 00:51:41;;;;;;;;;18.00;12.00;;;;;21.21;39.49;101985.97;5018672;28;45402;-72
2022/12/06 00:54:07;;;;;;;;;15.25;12.25;;;;;21.15;39.51;101986.56;5018448;28;45499;-72
2022/12/06 00:56:36;;;;;;;;;13.00;11.00;;;;;21.21;39.65;101995.75;5018137;28;46127;-72
2022/12/06 00:59:01;;;;;;;;;16.00;11.25;;;;;21.19;39.35;102003.81;5018466;28;45355;-71
2022/12/06 01:01:29;;;;;;;;;11.75;9.25;;;;;21.18;38.84;101997.69;5018197;28;45231;-72
2022/12/06 01:03:57;;;;;;;;;12.50;9.75;;;;;21.20;38.78;102004.66;5018487;28;45513;-72
2022/12/06 01:06:27;;;;;;;;;12.00;12.00;;;;;21.18;39.03;102010.91;5018307;28;46186;-72
2022/12/06 01:08:54;;;;;;;;;11.75;11.75;;;;;21.04;38.98;101992.88;5018174;28;45445;-72
2022/12/06 01:11:21;;;;;;;;;11.75;11.25;;;;;21.11;39.18;102006.34;5018067;28;45397;-73
2022/12/06 01:13:46;;;;;;;;;11.25;11.25;;;;;21.18;39.03;102010.91;5018296;28;45414;-72
2022/12/06 01:16:15;;;;;;;;;12.00;11.50;;;;;21.19;38.74;102009.09;5018063;28;45355;-72
2022/12/06 01:18:43;;;;;;;;;11.00;11.00;;;;;21.18;39.10;102010.91;5018271;28;45224;-72
2022/12/06 01:21:11;;;;;;;;;13.50;11.50;;;;;21.19;39.15;102011.75;5018098;28;45370;-72
2022/12/06 01:23:37;;;;;;;;;15.00;12.25;;;;;21.18;38.54;102008.25;5017969;28;45439;-72
2022/12/06 01:26:04;;;;;;;;;14.50;13.00;;;;;21.18;39.18;102002.16;5016907;28;46345;-72
2022/12/06 01:28:29;;;;;;;;;14.50;11.50;;;;;21.11;39.06;101983.38;5018242;28;45395;-71
2022/12/06 01:30:55;;;;;;;;;16.00;11.25;;;;;21.18;38.87;102002.97;5018000;28;45365;-72
2022/12/06 01:33:21;;;;;;;;;14.00;12.00;;;;;21.17;38.72;101997.84;5018128;28;45331;-72
2022/12/06 01:35:46;;;;;;;;;11.00;9.00;;;;;21.15;39.23;101992.69;5016650;28;47159;-72
2022/12/06 01:38:11;;;;;;;;;14.00;11.25;;;;;21.15;39.14;101989.22;5017856;28;45443;-72
2022/12/06 01:40:43;;;;;;;;;16.50;12.25;;;;;21.18;38.67;102002.97;5017701;28;45409;-72
2022/12/06 01:43:28;;;;;;;;;14.00;12.25;;;;;21.18;38.83;102004.81;5017910;28;45557;-72
2022/12/06 01:45:55;;;;;;;;;12.00;11.75;;;;;21.17;39.09;102009.25;5017729;28;45308;-71
2022/12/06 01:48:25;;;;;;;;;12.75;12.75;;;;;21.14;38.81;102001.59;5017622;28;45311;-72
2022/12/06 01:50:52;;;;;;;;;12.25;11.75;;;;;21.15;39.14;102003.28;5017684;28;45434;-71
2022/12/06 01:53:18;;;;;;;;;13.00;11.75;;;;;21.16;38.74;101999.66;5017482;28;45340;-72
2022/12/06 01:55:45;;;;;;;;;12.00;10.25;;;;;21.16;38.65;102014.69;5017052;28;47432;-73
2022/12/06 01:58:16;;;;;;;;;16.25;14.50;;;;;21.16;38.67;102007.59;5017576;28;45352;-71
2022/12/06 02:00:42;;;;;;;;;16.50;10.75;;;;;21.15;38.84;102002.44;5017284;28;45370;-72
2022/12/06 02:03:13;;;;;;;;;11.25;11.25;;;;;21.15;38.69;101999.81;5017473;28;45462;-72
2022/12/06 02:05:39;;;;;;;;;14.25;14.00;;;;;21.13;38.69;101997.28;4999611;28;47185;-71
2022/12/06 02:08:08;;;;;;;;;7.50;5.50;;;;;21.13;38.92;101999.94;5017344;28;45388;-72
2022/12/06 02:10:34;;;;;;;;;14.25;11.75;;;;;21.12;38.43;102008.03;5017270;28;45503;-72
2022/12/06 02:13:00;;;;;;;;;18.00;13.25;;;;;21.12;39.05;102002.72;5017407;28;45376;-72
2022/12/06 02:15:50;;;;;;;;;10.50;10.50;;;;;21.11;38.83;102004.53;5017233;28;45372;-72
2022/12/06 02:18:57;;;;;;;;;15.00;12.50;;;;;21.11;38.97;102001.91;5017169;28;45414;-72
2022/12/06 02:21:42;;;;;;;;;13.50;11.00;;;;;21.12;38.54;101997.44;5017109;28;45403;-72
2022/12/06 02:24:59;;;;;;;;;14.00;12.00;;;;;21.10;38.62;101984.38;4998908;28;45384;-72
2022/12/06 02:27:31;;;;;;;;;14.50;13.50;;;;;21.09;38.83;101980.03;4975151;28;47075;-72
2022/12/06 02:30:07;;;;;;;;;16.50;13.25;;;;;21.09;38.40;101987.97;4975301;28;45605;-72
2022/12/06 02:32:45;;;;;;;;;14.00;11.00;;;;;21.09;38.91;101992.44;4975422;28;45372;-72
2022/12/06 02:35:29;;;;;;;;;14.50;11.25;;;;;20.96;38.41;101975.06;4975284;28;45342;-72
2022/12/06 02:38:22;;;;;;;;;13.00;11.25;;;;;21.05;38.56;101990.06;4974563;28;46352;-71
2022/12/06 02:40:57;;;;;;;;;11.50;10.50;;;;;21.01;38.49;101994.00;4975068;28;45582;-72
2022/12/06 02:43:32;;;;;;;;;12.00;12.00;;;;;20.97;38.52;101989.97;4975042;28;45416;-72
2022/12/06 02:46:01;;;;;;;;;13.50;12.50;;;;;21.06;38.75;102007.63;4974837;28;45530;-72
2022/12/06 02:48:27;;;;;;;;;10.00;10.00;;;;;20.99;38.51;101998.59;4974939;28;45400;-72
2022/12/06 02:50:59;;;;;;;;;12.75;12.50;;;;;21.05;38.55;102019.19;4974932;28;45420;-71
2022/12/06 02:53:27;;;;;;;;;14.25;13.25;;;;;21.05;38.41;102019.19;4974683;28;45408;-71
2022/12/06 02:55:53;;;;;;;;;14.75;14.25;;;;;21.06;38.13;102020.84;4975062;28;45334;-71
2022/12/06 02:58:18;;;;;;;;;12.50;11.00;;;;;21.06;38.51;102025.31;4974778;28;45301;-71
2022/12/06 03:00:54;;;;;;;;;14.50;12.50;;;;;21.06;38.39;102030.59;4974678;28;46119;-71
2022/12/06 03:03:34;;;;;;;;;13.75;12.00;;;;;21.06;38.69;102030.59;5001225;28;45568;-72
2022/12/06 03:06:02;;;;;;;;;13.75;12.25;;;;;21.07;38.45;102016.41;5016544;28;45280;-72
2022/12/06 03:09:15;;;;;;;;;11.50;10.00;;;;;21.06;38.56;102018.22;5016057;28;46192;-71
2022/12/06 03:11:52;;;;;;;;;12.25;12.00;;;;;21.09;38.54;102009.16;4935719;28;45363;-72
2022/12/06 03:14:22;;;;;;;;;10.25;9.50;;;;;21.00;38.45;101988.84;4935939;28;45383;-71
2022/12/06 03:16:54;;;;;;;;;12.25;11.75;;;;;21.09;38.57;101997.72;4935811;28;45450;-72
2022/12/06 03:19:23;;;;;;;;;15.50;13.50;;;;;21.06;38.21;101997.03;4935780;28;46338;-71
2022/12/06 03:22:13;;;;;;;;;16.00;12.50;;;;;21.08;38.41;102002.19;4920761;28;45471;-72
2022/12/06 03:24:41;;;;;;;;;15.75;13.50;;;;;21.01;38.35;101986.06;4916679;28;45429;-72
2022/12/06 03:27:11;;;;;;;;;13.75;12.50;;;;;21.05;38.27;101986.63;4916670;28;45422;-71
2022/12/06 03:29:40;;;;;;;;;12.00;10.00;;;;;21.07;38.44;101989.94;4916291;28;46557;-71
2022/12/06 03:32:08;;;;;;;;;12.50;11.00;;;;;21.06;38.54;101985.63;4916361;28;45340;-71
2022/12/06 03:34:39;;;;;;;;;14.25;12.25;;;;;21.06;38.09;101980.34;4916567;28;45441;-71
2022/12/06 03:37:08;;;;;;;;;16.00;13.00;;;;;21.06;38.02;101983.81;4916226;28;45462;-71
2022/12/06 03:39:40;;;;;;;;;13.75;12.75;;;;;21.06;38.49;101988.28;4916186;28;45418;-71
2022/12/06 03:42:06;;;;;;;;;12.00;11.75;;;;;21.05;38.38;101983.97;4958476;28;45344;-71
2022/12/06 03:44:32;;;;;;;;;15.75;13.75;;;;;21.02;38.12;101981.63;5015928;28;45419;-71
2022/12/06 03:47:05;;;;;;;;;10.25;9.50;;;;;21.04;38.18;101991.06;5016042;28;45384;-72
2022/12/06 03:49:38;;;;;;;;;13.75;13.75;;;;;21.04;38.09;101995.53;5015728;28;46213;-71
2022/12/06 03:52:04;;;;;;;;;13.00;13.00;;;;;21.03;38.04;101992.03;5015408;28;45367;-71
2022/12/06 03:54:29;;;;;;;;;9.75;9.00;;;;;20.94;38.34;101980.50;5015682;28;45451;-71
2022/12/06 03:56:54;;;;;;;;;15.50;14.75;;;;;21.03;38.25;101997.34;5015748;28;45330;-71
2022/12/06 03:59:20;;;;;;;;;11.50;11.50;;;;;21.03;38.15;101989.41;5014798;28;45360;-71
2022/12/06 04:01:45;;;;;;;;;12.75;11.50;;;;;21.01;38.46;101987.84;5015636;28;45484;-70
2022/12/06 04:04:11;;;;;;;;;15.50;13.50;;;;;21.03;38.13;101989.41;5015724;28;45353;-72
2022/12/06 04:06:36;;;;;;;;;16.00;12.75;;;;;20.94;38.26;101977.00;5015560;28;45380;-72
2022/12/06 04:11:45;;;;;;;;;10.75;8.25;;;;;21.01;38.43;101977.25;5015600;28;45348;-72
2022/12/06 04:14:11;;;;;;;;;15.50;13.00;;;;;21.02;38.38;101981.63;5015509;28;45379;-71
2022/12/06 04:19:20;;;;;;;;;12.00;11.50;;;;;20.98;38.19;101988.97;5015199;28;45819;-72
2022/12/06 04:24:29;;;;;;;;;11.00;10.25;;;;;20.97;38.12;101979.38;5015382;28;45402;-71
2022/12/06 04:28:40;;;;;;;;;10.50;10.00;;;;;20.95;37.94;101971.56;5015140;28;45299;-72
2022/12/06 04:40:42;;;;;;;;;13.75;12.50;;;;;21.01;37.68;101974.59;5014992;28;45834;-72
2022/12/06 04:45:54;;;;;;;;;12.00;11.25;;;;;21.00;38.28;101973.78;5015335;28;45343;-71
2022/12/06 04:48:20;;;;;;;;;11.25;11.25;;;;;21.00;37.75;101971.13;5014920;28;45327;-71
2022/12/06 04:50:49;;;;;;;;;11.00;11.00;;;;;21.01;37.87;101971.97;5014784;28;45997;-73
2022/12/06 04:53:15;;;;;;;;;11.25;9.00;;;;;21.01;38.02;101969.31;5014957;28;45403;-72
2022/12/06 04:55:47;;;;;;;;;11.75;10.00;;;;;21.01;38.06;101974.59;5015025;28;45350;-72
2022/12/06 04:58:12;;;;;;;;;12.25;10.75;;;;;20.70;38.04;101920.16;5014983;28;45291;-71
2022/12/06 05:00:42;;;;;;;;;12.25;12.25;;;;;20.89;38.12;101948.34;5014657;28;45212;-72
2022/12/06 05:03:09;;;;;;;;;14.50;13.00;;;;;21.02;37.94;101960.44;5014381;28;45486;-72
2022/12/06 05:05:34;;;;;;;;;13.00;11.75;;;;;20.92;37.60;101953.34;5015136;28;45499;-72
2022/12/06 05:07:59;;;;;;;;;12.25;10.00;;;;;20.88;38.18;101951.97;5014991;28;45505;-70
2022/12/06 05:10:25;;;;;;;;;12.25;12.25;;;;;21.02;38.08;101971.03;4999597;28;48330;-70
2022/12/06 05:12:50;;;;;;;;;14.25;13.25;;;;;20.93;38.23;101957.66;5018329;28;45422;-72
2022/12/06 05:15:15;;;;;;;;;12.25;10.00;;;;;21.02;38.19;101973.69;5018095;28;48121;-72
2022/12/06 05:17:40;;;;;;;;;14.25;11.25;;;;;21.02;38.11;101977.16;5017966;28;45531;-72
2022/12/06 05:20:06;;;;;;;;;14.75;12.75;;;;;21.01;37.87;101982.53;5018125;28;46037;-72
2022/12/06 05:22:32;;;;;;;;;13.50;10.75;;;;;21.00;37.49;101980.91;5018135;28;45629;-72
2022/12/06 05:24:57;;;;;;;;;13.50;12.25;;;;;21.00;37.65;101994.94;5018298;28;45342;-72
2022/12/06 05:27:23;;;;;;;;;11.75;7.00;;;;;20.98;37.91;101988.97;5018039;28;45387;-72
2022/12/06 05:29:48;;;;;;;;;11.00;8.00;;;;;21.00;37.96;101983.53;5018070;28;46290;-72
2022/12/06 05:32:13;;;;;;;;;15.75;10.75;;;;;21.01;37.91;101987.84;5017636;28;45544;-72
2022/12/06 05:34:39;;;;;;;;;13.25;10.25;;;;;20.99;37.99;101988.00;5000177;28;45412;-72
2022/12/06 05:37:04;;;;;;;;;12.75;9.75;;;;;21.00;38.06;101991.47;5018019;28;45391;-72
2022/12/06 05:39:29;;;;;;;;;14.00;12.00;;;;;21.00;38.39;101988.84;5017816;28;46190;-72
2022/12/06 05:41:55;;;;;;;;;10.50;9.00;;;;;21.00;37.73;101988.84;5017762;28;45370;-72
2022/12/06 05:44:20;;;;;;;;;14.25;10.50;;;;;21.00;38.22;101992.28;5017869;28;45379;-72
2022/12/06 05:46:45;;;;;;;;;11.50;11.50;;;;;20.91;37.93;101977.31;5017559;28;45316;-70
2022/12/06 05:49:10;;;;;;;;;12.25;10.50;;;;;20.98;37.90;101985.47;5017563;28;48561;-70
2022/12/06 05:51:36;;;;;;;;;10.75;10.00;;;;;21.03;37.87;101996.50;5017614;28;45387;-72
2022/12/06 05:54:04;;;;;;;;;13.50;12.00;;;;;20.90;38.02;101986.19;5017529;28;45391;-71
2022/12/06 05:56:29;;;;;;;;;13.50;10.50;;;;;21.04;37.88;101995.53;5017565;28;45443;-71
2022/12/06 05:58:54;;;;;;;;;12.00;9.75;;;;;21.05;37.78;101994.56;4999579;28;46328;-72
2022/12/06 06:01:20;;;;;;;;;10.00;10.00;;;;;21.06;37.80;101996.22;5016835;28;48445;-73
2022/12/06 06:03:45;;;;;;;;;14.00;8.75;;;;;21.06;38.06;102002.34;5017494;28;45320;-72
2022/12/06 06:06:10;;;;;;;;;12.50;11.25;;;;;21.01;38.03;101985.19;5017611;28;45209;-71
2022/12/06 06:08:35;;;;;;;;;14.00;12.25;;;;;21.09;37.79;101995.09;5017264;28;46157;-72
2022/12/06 06:11:01;;;;;;;;;10.00;9.75;;;;;21.09;37.85;101987.16;5017463;28;45299;-72
2022/12/06 06:13:27;;;;;;;;;13.25;10.50;;;;;21.10;37.77;101991.47;5017353;28;45324;-71
2022/12/06 06:15:53;;;;;;;;;9.00;9.00;;;;;21.10;37.57;101984.38;5017091;28;45236;-72
2022/12/06 06:18:19;;;;;;;;;8.25;8.00;;;;;21.10;37.67;101984.38;5017216;28;45302;-71
2022/12/06 06:20:49;;;;;;;;;13.75;10.25;;;;;21.10;38.08;101979.06;5015977;28;45475;-72
2022/12/06 06:23:15;;;;;;;;;11.25;11.25;;;;;21.12;37.73;101986.84;5017257;28;45422;-72
2022/12/06 06:25:40;;;;;;;;;13.00;11.00;;;;;21.13;37.92;101989.34;4999215;28;45650;-71
2022/12/06 06:28:05;;;;;;;;;10.75;9.25;;;;;21.14;38.25;101992.84;5016964;28;46053;-73
2022/12/06 06:30:31;;;;;;;;;9.25;9.25;;;;;21.15;37.68;101999.81;5016705;28;45376;-71
2022/12/06 06:32:56;;;;;;;;;11.50;10.00;;;;;21.16;37.69;101998.81;5017146;28;45347;-73
2022/12/06 06:35:21;;;;;;;;;8.25;8.25;;;;;21.16;37.64;101988.22;5017139;28;45323;-72
2022/12/06 06:37:47;;;;;;;;;10.75;9.75;;;;;21.14;37.81;101990.19;5016794;28;45519;-72
2022/12/06 06:40:12;;;;;;;;;12.25;8.50;;;;;21.18;38.19;101986.28;5016903;28;45423;-72
2022/12/06 06:42:38;;;;;;;;;9.50;8.75;;;;;21.19;38.09;101985.28;5017079;28;45290;-72
2022/12/06 06:45:04;;;;;;;;;8.75;8.00;;;;;21.15;37.76;101968.03;5016628;28;45291;-72
2022/12/06 06:47:29;;;;;;;;;9.25;8.75;;;;;21.17;38.15;101966.91;5016821;28;46075;-76
2022/12/06 06:49:55;;;;;;;;;8.75;8.75;;;;;21.25;38.16;101975.94;5016561;28;45454;-72
2022/12/06 06:52:20;;;;;;;;;9.75;9.75;;;;;21.20;38.60;101970.25;5016860;28;45442;-72
2022/12/06 06:54:45;;;;;;;;;10.25;9.00;;;;;21.28;38.60;101983.59;5016580;28;45293;-73
2022/12/06 06:57:11;;;;;;;;;8.25;7.50;;;;;21.29;38.58;101980.78;5016538;28;46084;-73
2022/12/06 06:59:36;;;;;;;;;8.00;8.00;;;;;21.31;38.56;101988.59;5015855;28;48450;-73
2022/12/06 07:02:01;;;;;;;;;10.25;10.00;;;;;21.33;38.42;101989.28;5016642;28;45263;-73
2022/12/06 07:04:26;;;;;;;;;9.75;8.25;;;;;21.29;38.70;101988.72;5016438;28;45479;-73
2022/12/06 07:06:52;;;;;;;;;11.00;9.25;;;;;21.29;38.64;101990.53;5016154;28;51160;-73
2022/12/06 07:09:17;;;;;;;;;8.00;7.00;;;;;21.31;38.31;101988.59;5016321;28;45505;-73
2022/12/06 07:11:42;;;;;;;;;9.25;8.25;;;;;21.37;38.38;101989.78;5016455;28;45371;-73
2022/12/06 07:14:08;;;;;;;;;9.00;8.25;;;;;21.38;38.28;101997.59;5016125;28;45486;-72
2022/12/06 07:16:33;;;;;;;;;10.75;8.00;;;;;21.32;38.15;101992.88;5016179;28;46129;-73
2022/12/06 07:18:58;;;;;;;;;9.50;7.75;;;;;21.38;38.16;101999.41;5016224;28;45376;-73
2022/12/06 07:21:24;;;;;;;;;8.50;7.00;;;;;21.39;37.85;102007.19;5016221;28;45241;-73
2022/12/06 07:23:49;;;;;;;;;8.25;8.25;;;;;21.40;37.92;102000.09;5016216;28;45459;-72
2022/12/06 07:26:20;;;;;;;;;8.00;8.00;;;;;21.40;38.20;102002.75;5016020;28;46179;-74
2022/12/06 07:28:47;;;;;;;;;10.75;7.50;;;;;21.39;37.80;102003.75;5015801;28;45379;-73
2022/12/06 07:31:17;;;;;;;;;9.50;8.50;;;;;21.39;37.89;102006.38;5016240;28;45415;-73
2022/12/06 07:33:43;;;;;;;;;10.00;8.75;;;;;21.34;37.88;101998.06;5014966;28;45430;-73
2022/12/06 07:36:09;;;;;;;;;7.75;7.75;;;;;21.33;37.95;101999.84;5015958;28;45376;-73
2022/12/06 07:38:35;;;;;;;;;10.00;7.75;;;;;21.28;37.57;101994.16;4998318;28;45399;-73
2022/12/06 07:46:35;;;;;;;;;5.25;4.00;;;;;21.35;38.09;102005.00;5015700;28;45845;-73
2022/12/06 07:49:00;;;;;;;;;11.25;9.25;;;;;21.29;37.98;102004.59;4998081;28;45375;-73
2022/12/06 07:51:25;;;;;;;;;6.75;6.25;;;;;21.24;37.84;102012.16;5015759;28;45336;-73
2022/12/06 07:53:51;;;;;;;;;7.50;6.50;;;;;21.34;38.13;102030.63;5015853;28;45362;-73
2022/12/06 07:56:16;;;;;;;;;8.50;8.25;;;;;21.32;37.68;102029.09;5015287;28;46260;-73
2022/12/06 07:58:41;;;;;;;;;8.00;6.75;;;;;21.32;38.23;102029.94;5015637;28;45363;-73
2022/12/06 08:01:06;;;;;;;;;7.50;6.50;;;;;21.32;37.75;102037.88;5015588;28;45323;-73
2022/12/06 08:03:32;;;;;;;;;10.25;7.50;;;;;21.31;37.96;102041.53;5015722;28;45346;-74
2022/12/06 08:05:57;;;;;;;;;7.25;7.25;;;;;21.21;37.69;102027.50;5015790;28;45903;-73
2022/12/06 08:08:23;;;;;;;;;8.75;7.00;;;;;21.20;37.59;102021.38;5015703;28;45352;-73
2022/12/06 08:10:48;;;;;;;;;7.00;7.00;;;;;21.29;38.00;102041.66;5015180;28;45294;-74
2022/12/06 08:13:13;;;;;;;;;7.00;7.00;;;;;21.29;38.08;102039.00;5015824;28;45222;-73
2022/12/06 08:15:39;;;;;;;;;8.50;7.00;;;;;21.29;38.04;102046.97;5015547;28;45518;-73
2022/12/06 08:18:04;;;;;;;;;9.00;7.50;;;;;21.27;38.30;102048.09;5015477;28;45301;-73
2022/12/06 08:20:30;;;;;;;;;7.25;7.00;;;;;21.28;37.40;102042.66;5015490;28;45383;-73
2022/12/06 08:22:55;;;;;;;;;6.00;5.25;;;;;21.28;37.49;102042.66;4997609;28;45434;-73
2022/12/06 08:25:20;;;;;;;;;8.00;7.50;;;;;21.24;37.80;102045.72;5015018;28;46128;-73
2022/12/06 08:27:46;;;;;;;;;8.50;6.00;;;;;21.26;38.03;102047.25;5015195;28;45438;-73
2022/12/06 08:30:11;;;;;;;;;6.50;6.50;;;;;21.25;37.80;102050.88;5015413;28;45347;-73
2022/12/06 08:32:36;;;;;;;;;6.00;6.00;;;;;21.25;37.83;102042.94;5015471;28;45413;-73
2022/12/06 08:35:02;;;;;;;;;6.75;5.50;;;;;21.23;37.34;102038.78;5015323;28;45369;-73
2022/12/06 08:37:27;;;;;;;;;8.25;6.75;;;;;21.16;37.65;102031.41;5015102;28;45371;-73
2022/12/06 08:39:52;;;;;;;;;5.75;5.75;;;;;21.16;38.04;102036.69;5014764;28;49911;-73
2022/12/06 08:42:18;;;;;;;;;9.75;5.75;;;;;21.25;37.73;102047.41;5015296;28;45420;-73
2022/12/06 08:44:43;;;;;;;;;8.00;6.50;;;;;21.21;37.46;102043.38;5016726;28;45374;-73
2022/12/06 08:47:09;;;;;;;;;8.00;6.50;;;;;21.23;37.63;102036.97;5018783;28;45391;-73
2022/12/06 08:49:34;;;;;;;;;6.75;5.00;;;;;21.23;37.84;102041.41;5000976;28;45358;-73
2022/12/06 08:52:00;;;;;;;;;8.75;7.00;;;;;21.24;37.54;102051.84;5018602;28;45336;-73
2022/12/06 08:54:26;;;;;;;;;8.25;6.00;;;;;21.24;37.88;102059.78;5018091;28;47085;-73
2022/12/06 08:56:52;;;;;;;;;6.75;6.75;;;;;21.25;37.53;102057.97;5018471;28;45359;-73
2022/12/06 08:59:19;;;;;;;;;9.00;6.50;;;;;21.13;37.71;102050.22;5018536;28;45387;-72
2022/12/06 09:01:45;;;;;;;;;8.50;7.00;;;;;21.23;37.62;102065.25;5018482;28;45386;-73
2022/12/06 09:04:11;;;;;;;;;7.00;6.00;;;;;21.24;37.58;102069.53;5018056;28;45355;-73
2022/12/06 09:06:42;;;;;;;;;10.25;7.25;;;;;21.25;37.67;102063.28;5018372;28;45369;-73
2022/12/06 09:09:08;;;;;;;;;6.75;3.75;;;;;21.24;37.67;102066.91;5018130;28;45419;-74
2022/12/06 09:11:34;;;;;;;;;7.50;6.00;;;;;21.25;37.64;102065.94;5018135;28;45535;-73
2022/12/06 09:14:00;;;;;;;;;6.75;6.00;;;;;21.24;37.26;102072.19;5018173;28;45936;-73
2022/12/06 09:16:25;;;;;;;;;6.50;5.50;;;;;21.23;37.54;102081.13;5018091;28;45357;-73
2022/12/06 09:18:51;;;;;;;;;5.75;5.75;;;;;21.12;37.71;102059.16;5018390;28;45428;-73
2022/12/06 09:21:23;;;;;;;;;7.25;6.75;;;;;21.21;37.66;102075.97;5018083;28;45325;-73
2022/12/06 09:23:49;;;;;;;;;8.00;5.25;;;;;21.18;37.55;102063.84;5017775;28;45444;-73
2022/12/06 09:26:16;;;;;;;;;8.00;6.00;;;;;21.21;37.85;102059.28;5018091;28;45386;-72
2022/12/06 09:28:43;;;;;;;;;10.00;7.75;;;;;21.20;37.90;102066.38;5018042;28;45387;-71
2022/12/06 09:31:09;;;;;;;;;5.25;3.75;;;;;21.17;37.89;102074.59;5018003;28;45578;-74
2022/12/06 09:33:34;;;;;;;;;10.50;8.00;;;;;21.15;38.03;102081.84;5017872;28;45221;-72
2022/12/06 09:36:05;;;;;;;;;10.75;5.25;;;;;21.20;37.80;102082.25;5000091;28;45210;-73
2022/12/06 09:38:34;;;;;;;;;5.75;5.75;;;;;21.16;37.59;102080.84;5017643;28;45329;-73
2022/12/06 09:41:05;;;;;;;;;6.25;6.25;;;;;21.19;37.69;102091.16;5017859;28;45356;-73
2022/12/06 09:43:49;;;;;;;;;8.75;7.75;;;;;21.18;37.29;102082.38;5017535;28;47012;-72
2022/12/06 09:46:58;;;;;;;;;8.25;7.50;;;;;21.18;37.42;102086.84;5017765;28;45311;-73
2022/12/06 09:49:29;;;;;;;;;6.00;6.00;;;;;21.17;37.39;102082.53;4975862;28;45334;-73
2022/12/06 09:52:15;;;;;;;;;7.00;7.00;;;;;21.17;37.64;102093.13;4975751;28;45412;-72
2022/12/06 09:54:51;;;;;;;;;7.00;6.50;;;;;21.13;37.73;102078.50;4975627;28;46298;-73
2022/12/06 09:57:31;;;;;;;;;6.25;3.75;;;;;21.17;37.67;102085.19;4974866;28;45526;-73
2022/12/06 10:00:11;;;;;;;;;7.00;6.50;;;;;21.10;37.69;102079.63;4975623;28;45448;-73
2022/12/06 10:02:54;;;;;;;;;6.75;5.50;;;;;21.16;37.59;102100.22;4975882;28;45499;-74
2022/12/06 10:05:31;;;;;;;;;4.00;3.50;;;;;21.11;37.54;102085.75;4975303;28;45443;-73
2022/12/06 10:08:16;;;;;;;;;8.00;5.50;;;;;21.15;37.55;102097.72;4975380;28;45379;-73
2022/12/06 10:10:42;;;;;;;;;8.75;7.50;;;;;21.14;38.14;102099.53;4959235;28;45393;-72
2022/12/06 10:13:21;;;;;;;;;6.00;4.75;;;;;21.14;37.44;102103.97;4975623;28;45463;-73
2022/12/06 10:16:08;;;;;;;;;8.50;5.75;;;;;21.04;37.29;102088.97;4975535;28;46431;-73
2022/12/06 10:18:43;;;;;;;;;7.25;5.75;;;;;21.13;37.74;102103.13;4975595;28;45396;-72
2022/12/06 10:21:21;;;;;;;;;8.75;7.00;;;;;21.14;37.75;102112.75;4975302;28;45456;-73
2022/12/06 10:24:08;;;;;;;;;8.25;5.75;;;;;21.14;37.64;102106.63;4975273;28;45357;-73
2022/12/06 10:26:42;;;;;;;;;6.25;6.00;;;;;21.13;37.45;102111.09;5016853;28;47080;-73
2022/12/06 10:29:30;;;;;;;;;7.00;6.00;;;;;21.14;37.41;102111.91;5017142;28;45398;-73
2022/12/06 10:31:59;;;;;;;;;5.00;5.00;;;;;21.14;37.35;102109.28;5016987;28;45435;-73
2022/12/06 10:34:57;;;;;;;;;8.25;7.00;;;;;21.14;37.68;102114.56;5017106;28;45472;-73
2022/12/06 10:38:17;;;;;;;;;10.00;8.00;;;;;21.13;37.56;102097.84;5016561;28;46286;-73
2022/12/06 10:41:20;;;;;;;;;7.00;6.00;;;;;21.15;37.42;102095.06;4992339;28;45348;-73
2022/12/06 10:44:03;;;;;;;;;6.25;6.25;;;;;21.15;37.33;102103.00;4994543;28;45371;-71
2022/12/06 10:47:02;;;;;;;;;6.75;5.00;;;;;21.14;37.54;102091.59;4994814;28;45296;-72
2022/12/06 10:49:49;;;;;;;;;6.25;5.75;;;;;21.14;37.43;102086.31;4994622;28;45507;-73
2022/12/06 10:52:36;;;;;;;;;6.00;5.75;;;;;21.15;37.42;102079.19;4994086;28;45373;-72
2022/12/06 10:55:07;;;;;;;;;6.25;5.75;;;;;21.14;37.78;102074.88;4994659;28;45500;-72
2022/12/06 10:57:40;;;;;;;;;8.00;7.75;;;;;21.12;37.71;102071.53;4994441;28;45255;-73
2022/12/06 11:00:12;;;;;;;;;5.50;5.50;;;;;21.14;37.56;102069.59;4994269;28;46039;-73
2022/12/06 11:03:08;;;;;;;;;6.00;6.00;;;;;21.12;37.59;102061.78;4994530;28;45480;-73
2022/12/06 11:05:45;;;;;;;;;3.00;3.00;;;;;20.77;37.21;102008.53;4994295;28;45355;-72
2022/12/06 11:08:15;;;;;;;;;10.00;7.25;;;;;21.07;37.45;102053.44;5010829;28;45346;-73
2022/12/06 11:10:43;;;;;;;;;4.50;4.50;;;;;21.12;37.28;102059.16;4994082;28;46229;-71
2022/12/06 11:13:28;;;;;;;;;7.00;6.00;;;;;21.13;37.64;102070.56;4994477;28;45361;-73
2022/12/06 11:16:08;;;;;;;;;6.00;5.00;;;;;21.12;37.60;102064.44;4994225;28;45380;-73
2022/12/06 11:18:34;;;;;;;;;9.00;7.25;;;;;21.12;37.27;102071.53;4996311;28;45309;-73
2022/12/06 11:21:12;;;;;;;;;7.75;6.00;;;;;21.12;37.17;102061.78;5003620;28;46097;-73
2022/12/06 11:23:49;;;;;;;;;5.00;5.00;;;;;21.11;37.69;102057.47;5016113;28;45568;-73
2022/12/06 11:26:32;;;;;;;;;5.25;4.75;;;;;20.99;37.51;102030.31;5016155;28;45464;-73
2022/12/06 11:29:05;;;;;;;;;10.00;6.75;;;;;21.06;37.37;102025.31;5016072;28;45466;-72
2022/12/06 11:31:42;;;;;;;;;7.00;5.50;;;;;21.12;37.51;102042.44;5015649;28;45401;-73
2022/12/06 11:34:17;;;;;;;;;7.00;5.00;;;;;21.12;37.60;102042.44;5015686;28;45445;-72
2022/12/06 11:36:45;;;;;;;;;7.00;5.50;;;;;21.11;37.39;102038.09;5016236;28;45454;-73
2022/12/06 11:39:14;;;;;;;;;6.00;5.75;;;;;21.00;37.57;102024.03;5016185;28;45293;-73
2022/12/06 11:41:44;;;;;;;;;7.75;7.00;;;;;21.05;37.46;102032.41;5015791;28;46182;-73
2022/12/06 11:44:19;;;;;;;;;6.00;6.00;;;;;21.10;37.52;102039.94;4998124;28;45400;-73
2022/12/06 11:46:48;;;;;;;;;9.25;6.00;;;;;20.91;37.70;101994.00;5015976;28;45249;-71
2022/12/06 11:49:20;;;;;;;;;9.00;6.00;;;;;21.00;37.19;102023.22;5015556;28;45182;-73
2022/12/06 11:51:45;;;;;;;;;5.50;5.25;;;;;21.10;37.50;102028.50;5015546;28;45308;-73
2022/12/06 11:54:25;;;;;;;;;9.00;6.00;;;;;21.11;37.42;102032.81;5015608;28;45468;-73
2022/12/06 11:56:51;;;;;;;;;7.75;7.00;;;;;20.93;37.51;102001.78;5015798;28;45331;-73